Time;durP1;ratioP1;P1;durP2;ratioP2;P2;SDS_P1;SDS_P2;PMS_P1;PMS_P2;Temp;Humidity;BMP_temperature;BMP_pressure;BME280_temperature;BME280_humidity;BME280_pressure;Samples;Min_cycle;Max_cycle;Signal;HPM_P1;HPM_P2
2022/11/27 00:01:02;;;;;;;6.20;3.33;;;;;;;7.51;64.74;101347.47;5155661;27;20046;-63
2022/11/27 00:03:35;;;;;;;10.20;3.22;;;;;;;7.58;64.35;101342.53;5156194;27;20051;-63
2022/11/27 00:06:08;;;;;;;6.88;3.20;;;;;;;7.50;63.90;101346.66;5152767;27;20062;-63
2022/11/27 00:08:43;;;;;;;10.25;3.33;;;;;;;7.57;63.51;101329.75;5152307;27;20047;-63
2022/11/27 00:11:24;;;;;;;6.03;3.08;;;;;;;7.53;63.33;101325.84;5155757;27;20073;-63
2022/11/27 00:14:19;;;;;;;7.10;3.05;;;;;;;7.36;64.34;101323.31;5138343;27;20464;-63
2022/11/27 00:16:53;;;;;;;6.72;3.22;;;;;;;7.42;63.51;101315.84;5146018;27;20102;-63
2022/11/27 00:19:34;;;;;;;7.55;3.83;;;;;;;7.32;64.67;101323.00;5156066;27;20053;-63
2022/11/27 00:22:05;;;;;;;6.43;3.17;;;;;;;7.22;64.01;101320.19;5137802;27;20058;-63
2022/11/27 00:24:45;;;;;;;8.43;3.88;;;;;;;7.37;64.99;101324.13;5133375;27;20057;-63
2022/11/27 00:27:17;;;;;;;6.32;3.10;;;;;;;7.32;64.96;101322.19;5155049;27;20047;-65
2022/11/27 00:29:51;;;;;;;6.63;3.33;;;;;;;7.38;64.82;101315.56;5154974;27;20065;-62
2022/11/27 00:32:26;;;;;;;5.65;3.03;;;;;;;7.41;63.86;101312.25;5155149;27;20050;-63
2022/11/27 00:35:03;;;;;;;6.75;3.35;;;;;;;7.30;64.67;101313.31;5155617;27;20050;-63
2022/11/27 00:37:42;;;;;;;7.28;3.70;;;;;;;7.29;64.51;101312.47;5153504;27;20502;-63
2022/11/27 00:40:11;;;;;;;4.70;3.25;;;;;;;7.31;64.45;101303.91;5155191;27;20038;-70
2022/11/27 00:43:00;;;;;;;6.68;3.67;;;;;;;7.25;64.38;101305.00;5153060;27;20078;-64
2022/11/27 00:45:35;;;;;;;7.20;3.05;;;;;;;7.32;63.71;101300.84;5114050;28;20051;-63
2022/11/27 00:48:12;;;;;;;6.63;3.38;;;;;;;7.29;64.13;101304.16;5113936;28;20059;-63
2022/11/27 00:50:47;;;;;;;6.43;3.08;;;;;;;7.34;63.95;101295.03;5114172;27;20054;-63
2022/11/27 00:53:23;;;;;;;5.20;3.15;;;;;;;7.34;64.01;101286.72;5132540;27;20051;-63
2022/11/27 00:55:54;;;;;;;5.78;3.55;;;;;;;7.15;63.77;101294.69;5134123;27;20415;-63
2022/11/27 00:58:43;;;;;;;7.75;3.47;;;;;;;7.17;63.89;101291.66;5133835;27;20061;-64
2022/11/27 01:01:20;;;;;;;5.20;3.10;;;;;;;7.19;63.29;101283.91;5125306;27;20050;-63
2022/11/27 01:03:54;;;;;;;5.55;3.35;;;;;;;7.20;63.69;101286.41;5134341;27;20055;-63
2022/11/27 01:06:28;;;;;;;6.18;3.55;;;;;;;7.10;63.21;101287.19;5123484;27;20483;-63
2022/11/27 01:09:07;;;;;;;4.95;3.15;;;;;;;7.16;64.22;101287.22;5133982;27;20039;-63
2022/11/27 01:14:55;;;;;;;8.73;3.40;;;;;;;7.15;63.77;101294.69;5122764;27;20058;-63
2022/11/27 01:17:29;;;;;;;5.75;3.25;;;;;;;7.18;63.18;101294.16;5133186;27;20069;-63
2022/11/27 01:19:57;;;;;;;7.57;3.90;;;;;;;7.17;63.77;101298.03;5128747;27;20047;-63
2022/11/27 01:25:53;;;;;;;5.63;3.53;;;;;;;7.11;63.20;101304.66;5123201;27;20525;-63
2022/11/27 01:28:37;;;;;;;7.40;4.30;;;;;;;7.08;63.43;101306.03;5125011;27;20051;-63
2022/11/27 01:31:37;;;;;;;7.45;3.97;;;;;;;7.03;63.85;101296.84;5119498;27;20058;-63
2022/11/27 01:37:15;;;;;;;;;;;;;;;7.09;63.52;101285.53;5080021;28;20064;-63
2022/11/27 01:39:55;;;;;;;5.57;3.75;;;;;;;7.01;62.93;101279.66;5092358;28;19931;-63
2022/11/27 01:42:26;;;;;;;8.43;3.83;;;;;;;7.06;62.89;101283.31;5092858;28;20078;-63
2022/11/27 01:44:55;;;;;;;8.20;3.75;;;;;;;6.81;63.48;101272.13;5091960;28;20051;-63
2022/11/27 01:47:49;;;;;;;5.88;3.70;;;;;;;6.94;63.82;101260.53;5092482;28;20059;-63
2022/11/27 01:50:52;;;;;;;;;;;;;;;;;;;;;
2022/11/27 01:53:45;;;;;;;9.43;3.30;;;;;;;6.96;64.24;101268.59;5010650;28;20052;-63
2022/11/27 01:56:30;;;;;;;5.28;3.63;;;;;;;6.85;63.31;101268.53;5072509;28;20056;-63
2022/11/27 01:59:02;;;;;;;6.63;3.42;;;;;;;6.78;63.69;101273.47;5072281;28;20049;-63
2022/11/27 02:01:35;;;;;;;5.78;3.58;;;;;;;6.97;63.80;101271.09;5071905;28;20059;-63
2022/11/27 02:04:13;;;;;;;4.82;3.17;;;;;;;7.05;62.86;101280.78;5101582;28;20055;-63
2022/11/27 02:06:41;;;;;;;6.75;3.53;;;;;;;7.05;62.83;101273.31;5112993;28;20408;-63
2022/11/27 02:09:09;;;;;;;5.50;3.28;;;;;;;7.02;63.67;101271.09;5110940;28;20476;-63
2022/11/27 02:11:43;;;;;;;5.13;3.40;;;;;;;7.11;63.23;101265.88;5112871;28;20070;-63
2022/11/27 02:14:33;;;;;;;5.00;3.42;;;;;;;7.20;63.00;101264.25;5112500;28;20491;-63
2022/11/27 02:17:20;;;;;;;6.10;3.33;;;;;;;7.22;62.57;101262.00;5109872;28;20051;-63
2022/11/27 02:23:14;;;;;;;8.40;2.97;;;;;;;7.09;62.26;101246.72;5064980;28;20389;-63
2022/11/27 02:26:06;;;;;;;7.63;3.17;;;;;;;7.10;62.27;101230.97;5095248;28;20507;-63
2022/11/27 02:28:59;;;;;;;5.88;3.42;;;;;;;7.00;62.47;101226.22;5112695;28;20078;-63
2022/11/27 02:31:37;;;;;;;6.05;3.03;;;;;;;7.01;61.82;101227.03;5112101;28;20404;-63
2022/11/27 02:34:26;;;;;;;5.28;3.20;;;;;;;7.04;61.77;101223.75;5107918;28;20055;-63
2022/11/27 02:37:00;;;;;;;5.50;3.03;;;;;;;6.87;62.30;101222.03;5112149;28;20419;-63
2022/11/27 02:39:37;;;;;;;5.47;3.17;;;;;;;6.87;62.75;101213.72;5090254;28;20389;-63
2022/11/27 02:42:22;;;;;;;6.30;3.60;;;;;;;6.93;61.88;101209.03;5090778;28;20067;-63
2022/11/27 02:45:25;;;;;;;5.95;3.08;;;;;;;6.88;62.12;101209.81;5135103;27;20048;-63
2022/11/27 02:47:55;;;;;;;7.07;3.55;;;;;;;6.87;62.30;101213.72;5136371;27;20059;-63
2022/11/27 02:50:26;;;;;;;7.18;3.88;;;;;;;6.85;62.32;101218.69;5136639;27;20048;-63
2022/11/27 02:53:11;;;;;;;4.13;3.08;;;;;;;6.72;63.24;101216.44;5157093;27;20059;-63
2022/11/27 02:55:42;;;;;;;6.35;3.25;;;;;;;6.72;62.48;101210.91;5127958;27;20055;-63
2022/11/27 02:58:14;;;;;;;6.60;2.90;;;;;;;6.66;62.81;101203.66;5156841;27;20078;-63
2022/11/27 03:00:47;;;;;;;5.07;2.92;;;;;;;6.61;62.89;101203.63;5156656;27;20051;-63
2022/11/27 03:03:19;;;;;;;5.88;3.50;;;;;;;6.58;62.63;101191.16;5157180;27;20513;-63
2022/11/27 03:05:51;;;;;;;7.13;3.15;;;;;;;6.52;63.76;101174.81;5156872;27;20050;-63
2022/11/27 03:08:24;;;;;;;5.60;3.33;;;;;;;6.43;63.59;101180.88;5152746;27;20077;-63
2022/11/27 03:11:03;;;;;;;6.82;3.50;;;;;;;6.46;63.33;101168.41;5157134;27;20402;-63
2022/11/27 03:13:43;;;;;;;6.70;3.15;;;;;;;6.45;63.76;101175.91;5156326;27;20074;-63
2022/11/27 03:16:24;;;;;;;4.75;3.28;;;;;;;6.43;63.32;101168.97;5146138;27;20052;-62
2022/11/27 03:19:00;;;;;;;5.35;3.40;;;;;;;6.44;63.34;101163.13;5120896;27;20392;-63
2022/11/27 03:21:33;;;;;;;8.27;3.60;;;;;;;6.35;63.59;101170.31;5126081;27;20484;-63
2022/11/27 03:24:07;;;;;;;5.78;3.17;;;;;;;6.40;63.62;101173.09;5115698;28;20412;-63
2022/11/27 03:26:42;;;;;;;7.80;3.83;;;;;;;6.42;63.20;101153.44;5114037;28;20495;-63
2022/11/27 03:29:16;;;;;;;6.40;3.28;;;;;;;6.39;63.58;101149.28;5110903;28;20063;-62
2022/11/27 03:38:41;;;;;;;4.95;3.25;;;;;;;6.48;63.33;101136.59;5109486;27;20507;-63
2022/11/27 03:48:24;;;;;;;8.10;2.95;;;;;;;6.62;61.36;101141.66;5082442;28;20053;-63
2022/11/27 03:57:30;;;;;;;5.85;3.22;;;;;;;6.87;60.30;101140.88;5098130;28;20484;-63
2022/11/27 04:00:02;;;;;;;6.15;3.72;;;;;;;7.01;61.11;101141.19;5135106;27;20055;-63
2022/11/27 04:02:39;;;;;;;7.97;2.97;;;;;;;7.06;60.59;101132.91;5143738;27;20398;-63
2022/11/27 04:05:09;;;;;;;5.45;2.78;;;;;;;7.13;59.40;101136.22;5155803;27;20050;-63
2022/11/27 04:07:47;;;;;;;8.15;3.72;;;;;;;7.23;60.07;101140.94;5155632;27;20047;-63
2022/11/27 04:10:23;;;;;;;8.15;3.45;;;;;;;7.21;59.92;101143.16;5156028;27;20054;-63
2022/11/27 04:12:52;;;;;;;6.72;3.28;;;;;;;7.36;58.75;101136.81;5155733;27;20051;-63
2022/11/27 04:15:20;;;;;;;5.60;2.92;;;;;;;7.45;58.69;101126.81;5155890;27;20058;-63
2022/11/27 04:17:47;;;;;;;6.20;3.45;;;;;;;7.53;58.59;101140.13;5148439;27;20419;-63
2022/11/27 04:20:44;;;;;;;8.52;3.75;;;;;;;7.57;59.40;101132.09;5155791;27;20059;-63
2022/11/27 04:23:19;;;;;;;7.55;3.92;;;;;;;7.50;58.33;101132.38;5107760;28;20059;-63
2022/11/27 04:26:23;;;;;;;;;;;;;;;;;;;;;
2022/11/27 04:29:02;;;;;;;6.78;3.53;;;;;;;7.62;58.89;101127.38;5114107;28;20070;-63
2022/11/27 04:31:50;;;;;;;5.90;3.05;;;;;;;7.63;59.14;101115.16;5133543;27;20043;-63
2022/11/27 04:34:19;;;;;;;5.30;3.28;;;;;;;7.72;58.19;101118.19;5154048;27;20076;-64
2022/11/27 04:36:46;;;;;;;6.35;3.03;;;;;;;7.70;57.46;101112.09;5155518;27;20482;-63
2022/11/27 04:39:16;;;;;;;6.38;3.17;;;;;;;7.68;57.27;101111.56;5154778;27;20050;-63
2022/11/27 04:42:19;;;;;;;6.65;3.13;;;;;;;7.83;57.82;101102.38;5154880;27;20092;-63
2022/11/27 04:44:55;;;;;;;7.53;3.58;;;;;;;7.81;58.29;101108.22;5155091;27;20043;-63
2022/11/27 04:47:36;;;;;;;6.65;3.20;;;;;;;7.90;57.97;101098.19;5152654;27;20411;-63
2022/11/27 04:50:04;;;;;;;5.30;3.28;;;;;;;7.92;57.05;101093.22;5137320;27;20051;-63
2022/11/27 04:52:31;;;;;;;5.80;2.88;;;;;;;8.01;56.78;101087.91;5155247;27;20057;-63
2022/11/27 04:55:01;;;;;;;7.70;3.40;;;;;;;7.98;57.21;101082.09;5142605;27;20055;-63
2022/11/27 04:57:30;;;;;;;5.88;3.17;;;;;;;8.07;57.18;101077.63;5134115;27;20051;-64
2022/11/27 05:00:03;;;;;;;6.72;2.80;;;;;;;7.99;56.80;101081.00;5137053;27;20070;-63
2022/11/27 05:02:33;;;;;;;5.57;2.92;;;;;;;7.96;57.29;101087.94;5154629;27;20487;-63
2022/11/27 05:05:01;;;;;;;7.43;3.15;;;;;;;7.93;57.27;101088.47;5154268;27;20071;-63
2022/11/27 05:07:31;;;;;;;4.85;2.65;;;;;;;8.08;57.26;101091.22;5154637;27;20051;-63
2022/11/27 05:09:58;;;;;;;;;;;;;;;8.02;56.53;101075.72;5155697;27;20046;-65
2022/11/27 05:12:38;;;;;;;4.93;2.63;;;;;;;8.18;56.53;101062.59;5154724;27;20287;-63
2022/11/27 05:15:07;;;;;;;4.68;2.83;;;;;;;8.17;55.62;101057.31;5149584;27;20057;-63
2022/11/27 05:17:35;;;;;;;5.57;2.72;;;;;;;8.20;54.96;101059.53;5154953;27;20046;-63
2022/11/27 05:20:03;;;;;;;4.53;2.55;;;;;;;8.28;55.78;101048.69;5153876;27;20050;-63
2022/11/27 05:22:34;;;;;;;5.75;2.70;;;;;;;8.35;54.36;101042.81;5154269;27;20051;-63
2022/11/27 05:25:02;;;;;;;6.25;2.92;;;;;;;8.38;54.21;101028.38;5153911;27;20407;-63
2022/11/27 05:27:31;;;;;;;6.18;2.58;;;;;;;8.18;54.16;101034.03;5154615;27;20046;-63
2022/11/27 05:30:02;;;;;;;4.53;2.88;;;;;;;8.11;55.23;101037.94;5152525;27;20402;-63
2022/11/27 05:32:34;;;;;;;4.57;2.67;;;;;;;8.29;54.98;101028.16;5154269;27;20050;-63
2022/11/27 05:35:04;;;;;;;6.60;3.45;;;;;;;8.38;54.38;101016.41;5154116;27;20423;-63
2022/11/27 05:37:35;;;;;;;;;;;;;;;8.30;53.95;101013.16;5154893;27;20050;-63
2022/11/27 05:40:06;;;;;;;5.70;3.13;;;;;;;8.24;54.96;101011.50;5153005;27;19945;-63
2022/11/27 05:42:52;;;;;;;6.18;3.10;;;;;;;8.25;55.25;101015.97;5154191;27;20518;-62
2022/11/27 05:45:29;;;;;;;6.05;3.05;;;;;;;8.28;54.68;101018.16;5152935;27;20051;-63
2022/11/27 05:47:57;;;;;;;6.93;3.50;;;;;;;8.36;53.93;101019.50;5154556;27;20058;-63
2022/11/27 05:53:08;;;;;;;8.80;5.78;;;;;;;8.51;54.79;101016.66;5152857;27;20042;-63
2022/11/27 05:55:38;;;;;;;4.97;3.25;;;;;;;8.46;55.46;101019.47;5137818;27;20467;-63
2022/11/27 05:58:17;;;;;;;6.50;3.55;;;;;;;8.52;55.22;101011.94;5135008;27;20418;-63
2022/11/27 06:00:49;;;;;;;4.80;3.53;;;;;;;8.54;55.13;100993.03;5154360;27;20058;-64
2022/11/27 06:03:40;;;;;;;45.08;32.35;;;;;;;8.60;55.58;100999.41;5153335;27;20055;-63
2022/11/27 06:06:27;;;;;;;9.57;6.25;;;;;;;8.60;55.91;100991.06;5153885;27;20054;-63
2022/11/27 06:12:12;;;;;;;5.30;3.60;;;;;;;8.54;55.70;101002.19;5148671;27;20058;-63
2022/11/27 06:14:53;;;;;;;6.43;3.92;;;;;;;8.65;56.19;101004.91;5147659;27;20047;-63
2022/11/27 06:17:21;;;;;;;6.65;3.35;;;;;;;8.69;55.82;100989.31;5145310;27;20054;-63
2022/11/27 06:19:50;;;;;;;6.00;3.47;;;;;;;8.78;54.79;100998.72;5134377;27;20070;-63
2022/11/27 06:22:36;;;;;;;6.82;3.70;;;;;;;8.81;55.20;100994.53;5136131;27;20058;-63
2022/11/27 06:25:04;;;;;;;8.63;3.50;;;;;;;8.82;55.40;100994.25;5157796;27;20073;-63
2022/11/27 06:27:33;;;;;;;5.88;4.00;;;;;;;8.87;55.75;100985.84;5151023;27;20040;-63
2022/11/27 06:30:03;;;;;;;5.95;3.72;;;;;;;8.80;55.91;100977.03;5143162;27;20050;-63
2022/11/27 06:32:30;;;;;;;6.53;4.15;;;;;;;8.75;55.42;100982.59;5157358;27;20057;-63
2022/11/27 06:34:58;;;;;;;5.82;3.25;;;;;;;8.74;56.14;100980.97;5157475;27;20043;-63
2022/11/27 06:37:25;;;;;;;9.27;3.78;;;;;;;8.83;56.17;100978.41;5157410;27;20047;-63
2022/11/27 06:39:53;;;;;;;6.28;3.40;;;;;;;8.82;54.99;100987.84;5157590;27;20057;-63
2022/11/27 06:42:20;;;;;;;6.88;4.10;;;;;;;8.92;55.67;100991.38;5157122;27;20410;-63
2022/11/27 06:44:49;;;;;;;4.88;3.50;;;;;;;8.76;56.20;100989.84;5152934;27;20058;-64
2022/11/27 06:47:17;;;;;;;7.80;3.50;;;;;;;8.80;55.82;100985.38;5154339;27;20053;-63
2022/11/27 06:49:45;;;;;;;7.40;3.78;;;;;;;8.86;56.09;100983.34;5157048;27;20058;-64
2022/11/27 06:52:12;;;;;;;7.55;4.10;;;;;;;8.92;55.54;100980.28;5157182;27;20402;-63
2022/11/27 06:54:39;;;;;;;6.15;3.47;;;;;;;8.80;55.53;100967.84;5147935;27;20407;-63
2022/11/27 06:57:06;;;;;;;9.48;4.35;;;;;;;8.71;55.98;100975.97;5135873;27;20490;-63
2022/11/27 06:59:34;;;;;;;6.18;3.80;;;;;;;8.84;57.19;100968.94;5136593;27;20403;-63
2022/11/27 07:02:01;;;;;;;7.03;3.67;;;;;;;8.96;56.44;100960.22;5148439;27;20057;-63
2022/11/27 07:04:29;;;;;;;5.07;3.10;;;;;;;9.07;57.43;100967.34;5157038;27;20050;-63
2022/11/27 07:06:57;;;;;;;6.43;4.07;;;;;;;9.15;56.16;100961.16;5156727;27;20402;-64
2022/11/27 07:09:25;;;;;;;5.65;3.50;;;;;;;9.22;55.86;100961.66;5157087;27;20501;-63
2022/11/27 07:11:52;;;;;;;5.57;3.38;;;;;;;9.27;55.20;100967.16;5156810;27;20411;-63
2022/11/27 07:14:19;;;;;;;7.03;3.50;;;;;;;9.46;55.44;100963.63;5152316;27;20062;-63
2022/11/27 07:16:49;;;;;;;6.18;3.60;;;;;;;9.49;54.46;100955.53;5156886;27;20506;-63
2022/11/27 07:19:20;;;;;;;7.45;3.65;;;;;;;9.63;53.95;100952.84;5157160;27;20112;-63
2022/11/27 07:21:49;;;;;;;6.80;3.33;;;;;;;9.67;53.60;100953.91;5145254;27;20050;-63
2022/11/27 07:24:19;;;;;;;6.97;3.73;;;;;;;9.61;54.93;100945.94;5154269;27;20050;-70
2022/11/27 07:26:52;;;;;;;6.05;3.70;;;;;;;9.70;54.50;100942.22;5156610;27;20069;-64
2022/11/27 07:29:20;;;;;;;5.25;3.40;;;;;;;9.75;53.25;100939.34;5155377;27;20407;-63
2022/11/27 07:31:49;;;;;;;10.52;6.97;;;;;;;9.90;54.06;100941.09;5140942;27;20051;-63
2022/11/27 07:34:17;;;;;;;6.30;3.90;;;;;;;9.89;53.13;100936.69;5133787;27;20491;-64
2022/11/27 07:36:44;;;;;;;6.78;3.92;;;;;;;9.80;52.99;100935.66;5131473;27;20507;-63
2022/11/27 07:39:13;;;;;;;5.10;3.55;;;;;;;9.88;53.13;100940.56;5134202;27;20055;-63
2022/11/27 07:41:41;;;;;;;5.60;3.65;;;;;;;10.03;52.91;100936.75;5154957;27;20051;-64
2022/11/27 07:44:09;;;;;;;8.55;3.90;;;;;;;10.15;52.96;100945.50;5154766;27;20046;-64
2022/11/27 07:46:37;;;;;;;7.22;3.40;;;;;;;10.24;52.86;100944.81;5151519;27;20406;-63
2022/11/27 07:49:07;;;;;;;8.80;3.70;;;;;;;10.39;52.52;100943.78;5132055;27;20051;-65
2022/11/27 07:51:34;;;;;;;5.72;3.42;;;;;;;10.43;51.81;100939.28;5128513;27;20045;-64
2022/11/27 07:54:01;;;;;;;6.20;3.47;;;;;;;10.63;51.69;100947.31;5137549;27;20050;-63
2022/11/27 07:56:30;;;;;;;5.05;3.10;;;;;;;10.75;51.18;100949.63;5123823;27;20498;-64
2022/11/27 07:58:58;;;;;;;6.25;3.45;;;;;;;10.93;49.67;100939.59;5127226;27;20056;-64
2022/11/27 08:01:25;;;;;;;5.10;3.17;;;;;;;10.94;49.37;100944.84;5136249;27;20062;-63
2022/11/27 08:03:53;;;;;;;6.78;3.42;;;;;;;11.08;49.52;100930.13;5154876;27;20046;-64
2022/11/27 08:06:22;;;;;;;5.55;3.47;;;;;;;11.18;49.20;100932.72;5155905;27;20403;-64
2022/11/27 08:08:54;;;;;;;5.90;3.35;;;;;;;10.96;49.27;100923.09;5131454;27;20059;-63
2022/11/27 08:11:25;;;;;;;5.00;3.17;;;;;;;10.95;50.29;100920.59;5128744;27;20487;-64
2022/11/27 08:13:57;;;;;;;6.20;3.60;;;;;;;10.70;50.54;100913.50;5140829;27;20054;-63
2022/11/27 08:16:25;;;;;;;5.18;3.20;;;;;;;10.70;50.50;100913.50;5123866;27;20051;-63
2022/11/27 08:18:52;;;;;;;5.72;3.95;;;;;;;10.47;51.25;100916.09;5137906;27;20047;-63
2022/11/27 08:21:20;;;;;;;7.10;3.95;;;;;;;10.38;50.79;100912.34;5118531;27;20506;-63
2022/11/27 08:23:50;;;;;;;6.63;3.70;;;;;;;10.49;51.30;100911.03;5135259;27;20472;-62
2022/11/27 08:26:18;;;;;;;;;;;;;;;10.31;51.29;100906.31;5135329;27;20055;-63
2022/11/27 08:28:45;;;;;;;6.88;3.65;;;;;;;10.43;51.05;100900.28;5115090;27;20409;-63
2022/11/27 08:31:15;;;;;;;7.03;3.70;;;;;;;10.60;50.68;100908.09;5129554;27;20054;-63
2022/11/27 08:33:43;;;;;;;5.65;3.70;;;;;;;10.77;50.29;100886.91;5130109;27;20047;-63
2022/11/27 08:36:11;;;;;;;6.60;3.42;;;;;;;11.50;49.62;100878.81;5128089;27;20055;-63
2022/11/27 08:38:39;;;;;;;7.05;3.72;;;;;;;11.69;49.03;100877.88;5125165;27;20055;-63
2022/11/27 08:41:11;;;;;;;6.15;3.33;;;;;;;11.91;48.50;100871.56;5118355;27;20055;-62
2022/11/27 08:43:40;;;;;;;5.78;3.25;;;;;;;12.29;47.13;100868.44;5121284;27;20046;-63
2022/11/27 08:46:07;;;;;;;5.28;3.60;;;;;;;12.93;45.88;100871.81;5128162;27;20051;-63
2022/11/27 08:48:37;;;;;;;5.78;3.47;;;;;;;14.88;41.96;100859.47;5132113;27;20073;-63
2022/11/27 08:51:07;;;;;;;4.72;3.38;;;;;;;16.34;38.83;100858.19;5120442;27;20043;-63
2022/11/27 08:53:34;;;;;;;6.65;3.00;;;;;;;16.99;37.29;100847.31;5133957;27;20039;-64
2022/11/27 08:56:06;;;;;;;6.15;3.03;;;;;;;18.74;34.74;100837.03;5130534;27;20055;-64
2022/11/27 08:58:34;;;;;;;4.72;3.42;;;;;;;19.54;32.75;100847.19;5128109;27;20351;-63
2022/11/27 09:01:08;;;;;;;4.60;3.13;;;;;;;17.12;35.90;100842.53;5131828;27;20692;-63
2022/11/27 09:03:37;;;;;;;4.55;2.70;;;;;;;16.44;37.63;100850.16;5128223;27;20058;-64
2022/11/27 09:06:07;;;;;;;4.70;2.65;;;;;;;15.72;39.10;100842.94;5119921;27;20412;-64
2022/11/27 09:08:35;;;;;;;5.32;2.85;;;;;;;15.15;39.78;100833.00;5123636;27;20054;-63
2022/11/27 09:11:04;;;;;;;4.18;2.53;;;;;;;14.41;40.17;100830.19;5112895;28;20047;-63
2022/11/27 09:13:32;;;;;;;5.03;2.83;;;;;;;14.12;40.99;100822.47;5129714;27;20047;-63
2022/11/27 09:16:02;;;;;;;4.88;2.70;;;;;;;13.94;42.53;100821.66;5129430;27;20058;-64
2022/11/27 09:18:36;;;;;;;6.43;2.80;;;;;;;13.78;40.81;100814.88;5133780;27;20047;-64
2022/11/27 09:21:07;;;;;;;5.35;2.83;;;;;;;13.62;41.46;100813.69;5123425;27;20061;-63
2022/11/27 09:23:36;;;;;;;4.88;2.60;;;;;;;13.30;41.34;100808.19;5113344;27;20039;-63
2022/11/27 09:26:07;;;;;;;5.47;2.77;;;;;;;13.22;43.21;100816.53;5120787;27;20048;-63
2022/11/27 09:28:35;;;;;;;4.45;2.50;;;;;;;13.30;41.87;100813.78;5127064;27;20058;-63
2022/11/27 09:31:04;;;;;;;4.53;2.70;;;;;;;13.16;42.31;100818.63;5129382;27;20055;-63
2022/11/27 09:33:34;;;;;;;4.90;2.85;;;;;;;13.26;41.70;100818.34;5121084;27;20047;-64
2022/11/27 09:36:06;;;;;;;4.82;3.65;;;;;;;13.20;42.41;100825.22;5120737;27;20055;-63
2022/11/27 09:38:34;;;;;;;5.50;3.10;;;;;;;13.19;42.47;100820.81;5123960;27;20386;-63
2022/11/27 09:41:07;;;;;;;4.90;2.80;;;;;;;12.67;42.34;100838.16;5129644;27;20410;-63
2022/11/27 09:43:42;;;;;;;5.30;3.30;;;;;;;12.61;43.21;100842.22;5119521;27;20062;-64
2022/11/27 09:46:16;;;;;;;5.07;3.00;;;;;;;12.45;42.80;100852.13;5119201;27;20066;-63
2022/11/27 09:48:49;;;;;;;3.88;2.28;;;;;;;12.31;43.94;100843.81;5123850;27;20050;-63
2022/11/27 09:51:25;;;;;;;4.55;2.35;;;;;;;12.03;43.70;100829.94;5121071;27;20050;-64
2022/11/27 09:54:00;;;;;;;4.05;2.50;;;;;;;12.06;44.02;100829.34;5131551;27;20043;-63
2022/11/27 09:56:36;;;;;;;4.13;2.53;;;;;;;11.97;44.27;100817.28;5120902;27;20039;-64
2022/11/27 09:59:11;;;;;;;3.42;2.03;;;;;;;12.06;44.79;100801.41;5130733;28;20051;-64
2022/11/27 10:01:39;;;;;;;3.97;2.00;;;;;;;11.96;44.65;100810.84;5110806;27;20057;-63
2022/11/27 10:04:17;;;;;;;4.70;2.50;;;;;;;11.92;43.98;100825.75;5121854;27;20050;-63
2022/11/27 10:07:05;;;;;;;3.22;2.10;;;;;;;11.55;44.09;100830.47;5121531;28;20066;-63
2022/11/27 10:09:48;;;;;;;4.47;2.10;;;;;;;11.64;44.33;100827.75;5122336;28;20051;-62
2022/11/27 10:12:23;;;;;;;3.80;2.08;;;;;;;11.66;45.04;100817.94;5120573;27;20051;-63
2022/11/27 10:15:03;;;;;;;3.53;2.30;;;;;;;11.80;43.71;100812.34;5121511;28;20094;-64
2022/11/27 10:17:37;;;;;;;3.60;2.17;;;;;;;11.59;44.63;100811.97;5122705;27;20056;-62
2022/11/27 10:20:16;;;;;;;4.82;2.28;;;;;;;11.57;44.73;100817.03;5113592;28;20048;-62
2022/11/27 10:22:55;;;;;;;3.33;2.05;;;;;;;11.67;44.44;100825.16;5123796;27;20059;-62
2022/11/27 10:25:28;;;;;;;3.67;2.28;;;;;;;11.64;44.22;100811.84;5124522;28;20050;-62
2022/11/27 10:28:09;;;;;;;4.07;2.20;;;;;;;11.75;44.96;100804.06;5124813;27;20408;-62
2022/11/27 10:30:44;;;;;;;3.90;2.10;;;;;;;11.67;44.88;100813.19;5130071;28;20511;-62
2022/11/27 10:33:20;;;;;;;4.13;1.90;;;;;;;11.84;44.44;100801.34;5115974;28;20478;-62
2022/11/27 10:35:49;;;;;;;4.53;2.17;;;;;;;11.86;44.03;100794.31;5123453;28;20044;-62
2022/11/27 10:38:20;;;;;;;4.00;2.28;;;;;;;11.89;44.45;100799.31;5119980;28;20052;-62
2022/11/27 10:40:55;;;;;;;4.70;2.22;;;;;;;11.72;44.81;100799.94;5125755;28;20050;-62
2022/11/27 10:43:24;;;;;;;4.50;2.35;;;;;;;11.90;44.53;100794.53;5128819;27;20051;-63
2022/11/27 10:45:57;;;;;;;4.53;2.05;;;;;;;12.09;43.92;100797.97;5150498;27;20047;-62
2022/11/27 10:48:26;;;;;;;4.63;2.53;;;;;;;12.25;44.41;100786.44;5153689;27;20051;-62
2022/11/27 10:50:54;;;;;;;4.30;2.42;;;;;;;12.46;44.13;100778.34;5123914;27;20047;-62
2022/11/27 10:53:29;;;;;;;4.10;2.10;;;;;;;12.59;43.19;100781.03;5138776;27;20415;-62
2022/11/27 10:56:21;;;;;;;4.53;2.20;;;;;;;12.58;43.15;100779.41;5132588;28;20050;-62
2022/11/27 10:58:58;;;;;;;4.15;2.30;;;;;;;12.95;43.45;100762.47;5132065;27;20047;-62
2022/11/27 11:01:40;;;;;;;2.55;1.80;;;;;;;12.99;42.51;100767.09;5115366;28;20063;-62
2022/11/27 11:04:09;;;;;;;4.20;2.13;;;;;;;13.09;42.26;100756.78;5132479;27;20477;-62
2022/11/27 11:06:43;;;;;;;2.95;1.92;;;;;;;13.01;42.18;100763.97;5141151;27;20066;-62
2022/11/27 11:09:21;;;;;;;3.63;2.08;;;;;;;13.24;41.02;100753.50;5145923;27;20047;-62
2022/11/27 11:12:06;;;;;;;4.40;2.10;;;;;;;13.44;40.98;100759.66;5124226;27;20073;-62
2022/11/27 11:14:34;;;;;;;3.47;1.95;;;;;;;13.48;40.82;100757.84;5113494;28;20051;-62
2022/11/27 11:17:02;;;;;;;3.80;1.80;;;;;;;13.64;40.70;100750.63;5122029;27;20055;-62
2022/11/27 11:19:31;;;;;;;2.70;1.75;;;;;;;13.57;40.14;100736.31;5128532;27;20055;-62
2022/11/27 11:22:00;;;;;;;3.03;1.52;;;;;;;13.55;39.38;100752.63;5118867;27;20048;-62
2022/11/27 11:24:31;;;;;;;2.83;1.80;;;;;;;13.37;40.46;100732.97;5134161;27;20050;-62
2022/11/27 11:27:01;;;;;;;2.63;1.60;;;;;;;13.38;40.89;100739.44;5136023;27;20047;-62
2022/11/27 11:29:31;;;;;;;;;;;;;;;13.27;40.22;100724.06;5135913;27;20499;-63
2022/11/27 11:32:07;;;;;;;2.65;1.45;;;;;;;13.42;40.14;100731.19;5135863;27;19933;-63
2022/11/27 11:34:35;;;;;;;4.05;1.58;;;;;;;13.45;39.97;100725.75;5136975;27;20050;-63
2022/11/27 11:37:10;;;;;;;3.50;1.80;;;;;;;13.19;39.91;100720.09;5150803;27;20055;-63
2022/11/27 11:39:44;;;;;;;3.35;1.63;;;;;;;13.19;40.97;100718.13;5147427;27;20470;-63
2022/11/27 11:42:20;;;;;;;3.90;1.50;;;;;;;13.15;40.76;100707.91;5156517;27;20050;-63
2022/11/27 11:44:55;;;;;;;3.65;1.85;;;;;;;13.31;39.20;100700.75;5155929;27;20046;-63
2022/11/27 11:47:25;;;;;;;4.30;1.77;;;;;;;13.14;39.23;100695.88;5156194;27;20050;-63
2022/11/27 11:49:57;;;;;;;3.40;1.63;;;;;;;13.30;40.03;100696.28;5156501;27;20055;-65
2022/11/27 11:52:48;;;;;;;2.97;1.80;;;;;;;13.29;40.38;100689.06;5147400;27;20050;-63
2022/11/27 11:55:24;;;;;;;2.67;1.58;;;;;;;13.39;39.45;100676.69;5156264;27;20046;-63
2022/11/27 11:58:28;;;;;;;2.63;1.55;;;;;;;13.58;38.87;100679.16;5153459;27;20047;-63
2022/11/27 12:01:05;;;;;;;3.95;1.63;;;;;;;13.59;39.06;100669.63;5146126;27;20058;-64
2022/11/27 12:03:50;;;;;;;2.38;1.67;;;;;;;13.65;39.10;100656.28;5155677;27;20050;-63
2022/11/27 12:06:32;;;;;;;3.35;1.63;;;;;;;13.70;38.98;100645.75;5147758;27;20044;-63
2022/11/27 12:09:12;;;;;;;2.80;1.35;;;;;;;13.79;38.67;100646.53;5155514;27;20059;-62
2022/11/27 12:11:44;;;;;;;;;;;;;;;13.55;38.78;100649.88;5156385;27;20069;-62
2022/11/27 12:14:22;;;;;;;2.53;1.50;;;;;;;13.68;38.79;100636.03;5155704;27;19926;-63
2022/11/27 12:17:04;;;;;;;2.78;1.40;;;;;;;13.81;38.28;100632.22;5155408;27;20430;-63
2022/11/27 12:19:54;;;;;;;3.45;1.67;;;;;;;14.00;39.42;100613.06;5154252;27;20055;-63
2022/11/27 12:22:39;;;;;;;2.35;1.50;;;;;;;14.14;39.08;100607.25;5147921;27;20050;-63
2022/11/27 12:25:23;;;;;;;3.33;1.58;;;;;;;14.30;37.88;100603.88;5154821;27;20050;-63
2022/11/27 12:28:05;;;;;;;2.28;1.38;;;;;;;14.43;38.30;100597.25;5155061;27;20051;-63
2022/11/27 12:30:44;;;;;;;3.38;1.50;;;;;;;14.36;37.92;100592.19;5155387;27;20055;-63
2022/11/27 12:33:33;;;;;;;2.75;1.40;;;;;;;14.05;37.82;100588.81;5153792;27;20383;-63
2022/11/27 12:36:13;;;;;;;4.05;1.88;;;;;;;14.19;38.79;100578.22;5148898;27;20062;-63
2022/11/27 12:39:10;;;;;;;2.67;1.30;;;;;;;14.47;37.76;100577.75;5132090;27;20496;-63
2022/11/27 12:41:50;;;;;;;2.53;1.35;;;;;;;14.46;36.90;100574.13;5125981;27;20061;-63
2022/11/27 12:44:28;;;;;;;2.80;1.35;;;;;;;14.49;36.63;100565.06;5152061;27;20054;-63
2022/11/27 12:47:00;;;;;;;2.63;1.50;;;;;;;14.27;37.36;100559.75;5146913;27;20039;-63